createdAt,value
2023-05-19T00:01:39.492Z,93.75
2023-05-19T00:04:07.076Z,94.46
2023-05-19T00:06:33.941Z,94.20
2023-05-19T00:09:04.699Z,94.35
2023-05-19T00:11:31.362Z,94.71
2023-05-19T00:13:59.276Z,95.30
2023-05-19T00:16:26.882Z,95.53
2023-05-19T00:18:54.332Z,95.54
2023-05-19T00:21:21.863Z,94.96
2023-05-19T00:23:48.526Z,95.56
2023-05-19T00:26:15.355Z,95.46
2023-05-19T00:28:51.335Z,95.26
2023-05-19T00:31:18.059Z,95.66
2023-05-19T00:33:44.819Z,95.55
2023-05-19T00:36:11.448Z,95.13
2023-05-19T00:38:38.188Z,95.11
2023-05-19T00:41:05.479Z,95.21
2023-05-19T00:43:34.413Z,95.32
2023-05-19T00:46:01.081Z,95.48
2023-05-19T00:48:27.914Z,95.30
2023-05-19T00:50:56.133Z,95.55
2023-05-19T00:53:23.251Z,95.70
2023-05-19T00:55:50.530Z,95.54
2023-05-19T00:58:17.239Z,95.28
2023-05-19T01:00:44.385Z,95.94
2023-05-19T01:03:11.686Z,95.78
2023-05-19T01:05:42.614Z,95.19
2023-05-19T01:08:09.314Z,94.29
2023-05-19T01:10:36.928Z,94.82
2023-05-19T01:13:04.998Z,94.83
2023-05-19T01:15:39.366Z,94.71
2023-05-19T01:18:11.836Z,94.79
2023-05-19T01:20:38.604Z,95.18
2023-05-19T01:23:25.406Z,95.54
2023-05-19T01:26:15.733Z,94.25
2023-05-19T01:28:51.368Z,93.87
2023-05-19T01:31:21.249Z,93.91
2023-05-19T01:33:49.123Z,93.87
2023-05-19T01:36:16.128Z,93.83
2023-05-19T01:38:43.389Z,94.04
2023-05-19T01:41:10.175Z,94.38
2023-05-19T01:43:36.865Z,94.61
2023-05-19T01:46:03.676Z,95.04
2023-05-19T01:48:30.704Z,94.51
2023-05-19T01:50:57.957Z,95.05
2023-05-19T01:53:24.991Z,94.76
2023-05-19T01:55:57.129Z,94.53
2023-05-19T01:58:42.514Z,94.14
2023-05-19T02:01:15.251Z,94.59
2023-05-19T02:03:47.943Z,94.53
2023-05-19T02:06:14.509Z,94.96
2023-05-19T02:08:56.461Z,95.72
2023-05-19T02:11:37.876Z,96.32
2023-05-19T02:14:30.978Z,96.26
2023-05-19T02:16:59.355Z,96.04
2023-05-19T02:19:27.328Z,96.12
2023-05-19T02:21:55.411Z,96.13
2023-05-19T02:24:22.843Z,96.20
2023-05-19T02:26:50.461Z,96.13
2023-05-19T02:29:18.840Z,96.32
2023-05-19T02:31:45.421Z,96.09
2023-05-19T02:34:12.011Z,95.44
2023-05-19T02:36:41.043Z,95.75
2023-05-19T02:39:09.561Z,96.49
2023-05-19T02:41:36.151Z,97.03
2023-05-19T02:44:02.709Z,97.42
2023-05-19T02:46:30.045Z,98.09
2023-05-19T02:48:56.710Z,98.37
2023-05-19T02:51:23.274Z,98.34
2023-05-19T02:53:50.157Z,98.82
2023-05-19T02:56:16.834Z,99.17
2023-05-19T02:58:43.459Z,99.24
2023-05-19T03:01:11.120Z,99.46
2023-05-19T03:03:37.775Z,100.00
2023-05-19T03:06:05.005Z,100.00
2023-05-19T03:08:31.516Z,100.00
2023-05-19T03:10:58.048Z,100.00
2023-05-19T03:13:24.943Z,100.00
2023-05-19T03:15:51.539Z,100.00
2023-05-19T03:18:18.419Z,100.00
2023-05-19T03:20:44.989Z,100.00
2023-05-19T03:23:11.996Z,100.00
2023-05-19T03:25:38.653Z,99.69
2023-05-19T03:28:05.541Z,100.00
2023-05-19T03:30:32.362Z,99.12
2023-05-19T03:33:12.699Z,98.14
2023-05-19T03:35:40.488Z,97.23
2023-05-19T03:38:07.257Z,96.71
2023-05-19T03:40:34.831Z,95.66
2023-05-19T03:43:05.609Z,95.41
2023-05-19T03:45:36.350Z,95.11
2023-05-19T03:48:17.508Z,94.23
2023-05-19T03:51:09.113Z,93.11
2023-05-19T03:53:35.730Z,92.83
2023-05-19T03:56:02.439Z,91.71
2023-05-19T03:58:30.153Z,91.19
2023-05-19T04:00:56.738Z,90.18
2023-05-19T04:03:23.536Z,89.74
2023-05-19T04:05:51.728Z,88.98
2023-05-19T04:08:18.330Z,87.41
2023-05-19T04:10:44.876Z,86.96
2023-05-19T04:13:11.623Z,86.67
2023-05-19T04:15:38.233Z,85.80
2023-05-19T04:18:04.931Z,85.55
2023-05-19T04:20:32.779Z,85.53
2023-05-19T04:22:59.445Z,86.04
2023-05-19T04:25:28.189Z,85.96
2023-05-19T04:27:57.704Z,85.90
2023-05-19T04:30:25.072Z,85.07
2023-05-19T04:32:52.297Z,84.48
2023-05-19T04:35:19.577Z,84.00
2023-05-19T04:37:47.363Z,83.18
2023-05-19T04:40:17.461Z,83.44
2023-05-19T04:42:45.925Z,83.41
2023-05-19T04:45:14.125Z,83.00
2023-05-19T04:47:44.459Z,83.47
2023-05-19T04:50:11.383Z,81.89
2023-05-19T04:52:38.076Z,80.83
2023-05-19T04:55:06.108Z,79.15
2023-05-19T04:57:32.736Z,77.75
2023-05-19T05:00:01.993Z,74.49
2023-05-19T05:02:37.337Z,71.59
2023-05-19T05:05:04.315Z,71.35
2023-05-19T05:07:32.511Z,69.43
2023-05-19T05:10:02.207Z,68.65
2023-05-19T05:12:29.741Z,67.47
2023-05-19T05:14:56.474Z,68.58
2023-05-19T05:17:23.202Z,67.37
2023-05-19T05:19:50.021Z,67.23
2023-05-19T05:22:17.629Z,65.99
2023-05-19T05:24:44.283Z,64.59
2023-05-19T05:27:11.097Z,65.07
2023-05-19T05:29:37.821Z,64.53
2023-05-19T05:32:06.006Z,62.34
2023-05-19T05:34:33.097Z,60.15
2023-05-19T05:36:59.670Z,63.56
2023-05-19T05:39:27.976Z,63.42
2023-05-19T05:41:55.011Z,65.74
2023-05-19T05:44:22.360Z,65.15
2023-05-19T05:46:50.295Z,65.92
2023-05-19T05:49:17.540Z,65.68
2023-05-19T05:51:54.604Z,66.17
2023-05-19T05:54:29.058Z,66.46
2023-05-19T05:56:55.878Z,65.76
2023-05-19T05:59:22.835Z,67.69
2023-05-19T06:01:49.636Z,66.81
2023-05-19T06:04:18.075Z,65.92
2023-05-19T06:06:44.663Z,64.82
2023-05-19T06:09:13.828Z,66.13
2023-05-19T06:11:40.434Z,63.74
2023-05-19T06:14:07.125Z,63.20
2023-05-19T06:16:53.780Z,61.99
2023-05-19T06:19:21.291Z,63.49
2023-05-19T06:21:48.017Z,63.01
2023-05-19T06:24:15.285Z,61.36
2023-05-19T06:26:41.906Z,60.18
2023-05-19T06:29:08.497Z,57.41
2023-05-19T06:31:35.196Z,56.79
2023-05-19T06:34:21.320Z,57.49
2023-05-19T06:36:48.062Z,59.24
2023-05-19T06:39:15.514Z,59.48
2023-05-19T06:41:42.183Z,57.93
2023-05-19T06:44:11.698Z,58.53
2023-05-19T06:46:38.341Z,54.91
2023-05-19T06:49:05.192Z,53.10
2023-05-19T06:51:36.711Z,54.08
2023-05-19T06:54:04.036Z,55.69
2023-05-19T06:56:30.625Z,51.94
2023-05-19T06:58:57.220Z,51.09
2023-05-19T07:01:30.536Z,51.97
2023-05-19T07:03:58.541Z,54.53
2023-05-19T07:06:25.385Z,57.94
2023-05-19T07:08:52.689Z,55.06
2023-05-19T07:11:19.759Z,57.88
2023-05-19T07:13:47.492Z,59.13
2023-05-19T07:16:19.875Z,60.13
2023-05-19T07:18:46.617Z,60.87
2023-05-19T07:21:13.219Z,60.15
2023-05-19T07:23:39.950Z,57.94
2023-05-19T07:26:06.502Z,57.28
2023-05-19T07:28:34.390Z,58.47
2023-05-19T07:31:01.472Z,57.58
2023-05-19T07:33:28.045Z,56.32
2023-05-19T07:35:54.581Z,56.33
2023-05-19T07:38:21.496Z,59.55
2023-05-19T07:40:48.028Z,57.68
2023-05-19T07:43:14.655Z,57.57
2023-05-19T07:45:41.335Z,57.01
2023-05-19T07:48:08.091Z,55.63
2023-05-19T07:50:34.843Z,54.77
2023-05-19T07:53:01.369Z,53.04
2023-05-19T07:55:27.922Z,52.04
2023-05-19T07:57:54.458Z,52.51
2023-05-19T08:00:21.272Z,51.31
2023-05-19T08:02:47.963Z,50.35
2023-05-19T08:05:15.003Z,51.51
2023-05-19T08:07:41.539Z,48.45
2023-05-19T08:10:08.225Z,50.13
2023-05-19T08:12:34.858Z,52.54
2023-05-19T08:15:01.983Z,53.02
2023-05-19T08:17:28.984Z,51.07
2023-05-19T08:19:55.607Z,54.78
2023-05-19T08:22:22.329Z,53.48
2023-05-19T08:24:49.808Z,55.82
2023-05-19T08:27:16.726Z,56.96
2023-05-19T08:29:43.674Z,55.75
2023-05-19T08:32:12.390Z,55.82
2023-05-19T08:34:39.919Z,55.44
2023-05-19T08:37:07.024Z,54.54
2023-05-19T08:39:34.874Z,55.43
2023-05-19T08:42:02.431Z,53.68
2023-05-19T08:44:30.842Z,53.95
2023-05-19T08:47:00.761Z,56.78
2023-05-19T08:49:30.735Z,57.54
2023-05-19T08:52:00.357Z,54.67
2023-05-19T08:54:30.418Z,55.41
2023-05-19T08:56:57.377Z,53.36
2023-05-19T08:59:24.231Z,54.83
2023-05-19T09:01:51.215Z,53.23
2023-05-19T09:04:17.990Z,53.80
2023-05-19T09:06:45.432Z,53.58
2023-05-19T09:09:12.203Z,54.16
2023-05-19T09:11:38.915Z,50.38
2023-05-19T09:14:05.794Z,55.24
2023-05-19T09:16:33.874Z,52.20
2023-05-19T09:19:01.359Z,49.35
2023-05-19T09:21:31.101Z,50.22
2023-05-19T09:24:07.242Z,49.36
2023-05-19T09:26:40.878Z,51.78
2023-05-19T09:29:14.280Z,51.65
2023-05-19T09:31:47.536Z,52.82
2023-05-19T09:34:14.229Z,52.11
2023-05-19T09:36:42.168Z,51.18
2023-05-19T09:39:15.545Z,50.89
2023-05-19T09:41:42.697Z,52.02
2023-05-19T09:44:12.692Z,50.36
2023-05-19T09:46:47.492Z,52.83
2023-05-19T09:49:14.408Z,53.73
2023-05-19T09:51:41.686Z,54.81
2023-05-19T09:54:10.110Z,55.21
2023-05-19T09:56:36.689Z,57.96
2023-05-19T09:59:03.736Z,58.02
2023-05-19T10:01:37.263Z,58.36
2023-05-19T10:04:05.914Z,58.65
2023-05-19T10:06:32.907Z,57.86
2023-05-19T10:09:00.273Z,59.87
2023-05-19T10:11:27.411Z,57.70
2023-05-19T10:13:54.026Z,58.14
2023-05-19T10:16:21.918Z,57.37
2023-05-19T10:18:50.062Z,56.67
2023-05-19T10:21:16.715Z,56.21
2023-05-19T10:23:43.266Z,57.19
2023-05-19T10:26:10.853Z,56.84
2023-05-19T10:28:39.640Z,57.55
2023-05-19T10:31:07.752Z,58.95
2023-05-19T10:33:52.830Z,58.98
2023-05-19T10:36:21.309Z,57.01
2023-05-19T10:39:00.719Z,59.39
2023-05-19T10:41:53.755Z,58.07
2023-05-19T10:44:25.104Z,60.33
2023-05-19T10:46:53.467Z,59.89
2023-05-19T10:49:22.300Z,60.84
2023-05-19T10:51:49.173Z,58.51
2023-05-19T10:54:17.398Z,59.28
2023-05-19T10:56:47.257Z,58.57
2023-05-19T10:59:33.586Z,58.74
2023-05-19T11:02:06.678Z,57.32
2023-05-19T11:04:40.590Z,61.60
2023-05-19T11:07:09.279Z,61.21
2023-05-19T11:09:42.937Z,60.09
2023-05-19T11:12:10.953Z,62.95
2023-05-19T11:14:37.569Z,60.73
2023-05-19T11:17:05.579Z,60.43
2023-05-19T11:19:34.304Z,58.59
2023-05-19T11:22:09.759Z,60.25
2023-05-19T11:24:36.601Z,57.76
2023-05-19T11:27:18.822Z,58.54
2023-05-19T11:29:45.834Z,60.97
2023-05-19T11:32:12.841Z,59.97
2023-05-19T11:34:40.051Z,61.10
2023-05-19T11:37:06.831Z,58.03
2023-05-19T11:39:33.446Z,60.11
2023-05-19T11:42:00.068Z,58.91
2023-05-19T11:44:26.607Z,58.46
2023-05-19T11:46:53.269Z,58.38
2023-05-19T11:49:26.006Z,58.59
2023-05-19T11:52:16.186Z,59.65
2023-05-19T11:54:42.748Z,60.37
2023-05-19T11:57:10.678Z,58.39
2023-05-19T11:59:39.138Z,57.27
2023-05-19T12:02:22.568Z,61.19
2023-05-19T12:04:49.487Z,60.97
2023-05-19T12:07:19.556Z,60.81
2023-05-19T12:09:47.061Z,60.71
2023-05-19T12:12:14.858Z,61.39
2023-05-19T12:14:41.784Z,61.12
2023-05-19T12:17:12.554Z,60.49
2023-05-19T12:19:39.839Z,61.04
2023-05-19T12:22:06.989Z,59.56
2023-05-19T12:24:34.424Z,56.82
2023-05-19T12:27:10.344Z,55.98
2023-05-19T12:29:38.472Z,60.33
2023-05-19T12:32:08.113Z,57.99
2023-05-19T12:34:38.739Z,57.93
2023-05-19T12:37:37.561Z,58.94
2023-05-19T12:40:04.256Z,55.42
2023-05-19T12:42:31.417Z,57.27
2023-05-19T12:45:00.691Z,59.16
2023-05-19T12:47:33.280Z,58.56
2023-05-19T12:49:59.836Z,61.66
2023-05-19T12:52:27.031Z,58.65
2023-05-19T12:55:01.024Z,58.04
2023-05-19T12:57:29.691Z,58.36
2023-05-19T13:00:28.097Z,58.63
2023-05-19T13:02:55.453Z,58.44
2023-05-19T13:05:22.727Z,57.96
2023-05-19T13:07:59.808Z,57.62
2023-05-19T13:10:27.661Z,57.62
2023-05-19T13:12:58.741Z,57.03
2023-05-19T13:15:26.434Z,55.03
2023-05-19T13:17:53.714Z,58.78
2023-05-19T13:20:20.783Z,57.79
2023-05-19T13:22:47.970Z,58.67
2023-05-19T13:25:14.550Z,59.94
2023-05-19T13:27:41.166Z,59.73
2023-05-19T13:30:08.070Z,59.73
2023-05-19T13:32:34.858Z,59.92
2023-05-19T13:35:02.011Z,58.68
2023-05-19T13:37:28.693Z,61.46
2023-05-19T13:39:55.884Z,60.57
2023-05-19T13:42:22.396Z,60.92
2023-05-19T13:44:49.011Z,59.56
2023-05-19T13:47:15.775Z,60.73
2023-05-19T13:49:42.411Z,62.77
2023-05-19T13:52:08.901Z,59.55
2023-05-19T13:54:38.201Z,60.81
2023-05-19T13:57:04.916Z,59.62
2023-05-19T13:59:31.585Z,58.99
2023-05-19T14:01:58.143Z,58.58
2023-05-19T14:04:24.832Z,58.34
2023-05-19T14:06:51.409Z,57.32
2023-05-19T14:09:18.011Z,57.56
2023-05-19T14:11:44.676Z,58.12
2023-05-19T14:14:11.654Z,58.85
2023-05-19T14:16:38.627Z,58.07
2023-05-19T14:19:05.224Z,58.09
2023-05-19T14:21:32.632Z,57.38
2023-05-19T14:23:59.326Z,58.06
2023-05-19T14:26:27.498Z,57.95
2023-05-19T14:28:57.121Z,56.25
2023-05-19T14:31:24.089Z,58.20
2023-05-19T14:33:51.110Z,59.88
2023-05-19T14:36:17.876Z,62.71
2023-05-19T14:38:44.664Z,59.89
2023-05-19T14:41:11.227Z,61.32
2023-05-19T14:43:37.905Z,61.76
2023-05-19T14:46:04.448Z,59.72
2023-05-19T14:48:30.959Z,58.40
2023-05-19T14:50:57.502Z,59.52
2023-05-19T14:53:24.032Z,59.05
2023-05-19T14:55:50.647Z,59.69
2023-05-19T14:58:28.347Z,59.62
2023-05-19T15:00:57.274Z,59.08
2023-05-19T15:03:23.789Z,58.81
2023-05-19T15:05:50.653Z,60.39
2023-05-19T15:08:17.319Z,56.91
2023-05-19T15:10:43.890Z,55.79
2023-05-19T15:13:11.929Z,60.11
2023-05-19T15:15:38.560Z,58.46
2023-05-19T15:18:05.165Z,58.95
2023-05-19T15:20:31.850Z,57.56
2023-05-19T15:22:58.624Z,56.51
2023-05-19T15:25:25.276Z,57.08
2023-05-19T15:27:51.852Z,59.98
2023-05-19T15:30:18.418Z,58.96
2023-05-19T15:32:45.029Z,60.09
2023-05-19T15:35:11.585Z,58.36
2023-05-19T15:37:38.091Z,59.12
2023-05-19T15:40:04.877Z,57.85
2023-05-19T15:42:31.472Z,60.73
2023-05-19T15:44:58.021Z,60.93
2023-05-19T15:47:24.532Z,60.12
2023-05-19T15:49:51.261Z,60.61
2023-05-19T15:52:17.816Z,63.80
2023-05-19T15:54:44.641Z,63.00
2023-05-19T15:57:11.157Z,62.49
2023-05-19T15:59:37.686Z,61.87
2023-05-19T16:02:04.312Z,63.32
2023-05-19T16:04:35.612Z,63.36
2023-05-19T16:07:04.150Z,63.15
2023-05-19T16:09:30.700Z,63.83
2023-05-19T16:11:57.251Z,63.67
2023-05-19T16:14:24.508Z,64.85
2023-05-19T16:16:51.410Z,66.02
2023-05-19T16:19:18.115Z,65.09
2023-05-19T16:21:44.777Z,64.76
2023-05-19T16:24:11.384Z,64.63
2023-05-19T16:26:37.921Z,65.55
2023-05-19T16:29:04.478Z,65.78
2023-05-19T16:31:31.194Z,66.07
2023-05-19T16:33:57.753Z,67.10
2023-05-19T16:36:24.402Z,67.31
2023-05-19T16:38:51.002Z,67.83
2023-05-19T16:41:17.536Z,68.26
2023-05-19T16:43:44.207Z,67.86
2023-05-19T16:46:12.301Z,68.39
2023-05-19T16:48:39.003Z,67.97
2023-05-19T16:51:05.716Z,67.18
2023-05-19T16:53:32.365Z,67.04
2023-05-19T16:56:02.072Z,67.31
2023-05-19T16:58:29.574Z,67.02
2023-05-19T17:00:57.885Z,66.73
2023-05-19T17:03:24.838Z,67.04
2023-05-19T17:05:52.444Z,66.17
2023-05-19T17:08:19.068Z,66.42
2023-05-19T17:10:47.247Z,66.56
2023-05-19T17:13:14.319Z,66.99
2023-05-19T17:15:43.089Z,67.48
2023-05-19T17:18:12.471Z,67.86
2023-05-19T17:20:39.289Z,66.81
2023-05-19T17:23:06.060Z,67.07
2023-05-19T17:25:32.960Z,67.00
2023-05-19T17:27:59.643Z,66.90
2023-05-19T17:30:26.377Z,67.65
2023-05-19T17:32:53.072Z,67.38
2023-05-19T17:35:19.728Z,67.49
2023-05-19T17:37:46.454Z,67.65
2023-05-19T17:40:13.302Z,67.71
2023-05-19T17:42:39.850Z,67.70
2023-05-19T17:45:07.670Z,67.74
2023-05-19T17:47:34.475Z,67.86
2023-05-19T17:50:01.237Z,68.30
2023-05-19T17:52:27.958Z,68.84
2023-05-19T17:54:54.630Z,69.33
2023-05-19T17:57:24.795Z,69.75
2023-05-19T17:59:51.654Z,69.92
2023-05-19T18:02:19.232Z,70.88
2023-05-19T18:04:46.079Z,71.77
2023-05-19T18:07:13.886Z,74.71
2023-05-19T18:09:43.650Z,78.55
2023-05-19T18:12:10.181Z,79.70
2023-05-19T18:14:36.744Z,80.21
2023-05-19T18:17:03.313Z,80.18
2023-05-19T18:19:30.071Z,80.15
2023-05-19T18:21:56.661Z,79.85
2023-05-19T18:24:23.280Z,80.09
2023-05-19T18:26:49.829Z,80.45
2023-05-19T18:29:16.496Z,80.60
2023-05-19T18:31:43.149Z,80.79
2023-05-19T18:34:09.907Z,81.04
2023-05-19T18:36:36.503Z,81.23
2023-05-19T18:39:04.496Z,81.41
2023-05-19T18:41:32.059Z,82.06
2023-05-19T18:43:58.692Z,82.29
2023-05-19T18:46:25.405Z,82.36
2023-05-19T18:48:51.993Z,82.73
2023-05-19T18:51:19.888Z,83.45
2023-05-19T18:53:49.397Z,84.61
2023-05-19T18:56:22.926Z,85.64
2023-05-19T18:58:49.468Z,86.63
2023-05-19T19:01:16.501Z,87.52
2023-05-19T19:03:43.835Z,88.52
2023-05-19T19:06:10.631Z,89.28
2023-05-19T19:08:37.192Z,90.19
2023-05-19T19:11:05.152Z,90.58
2023-05-19T19:13:31.763Z,91.28
2023-05-19T19:15:58.382Z,91.74
2023-05-19T19:18:26.099Z,91.85
2023-05-19T19:20:52.809Z,92.01
2023-05-19T19:23:19.354Z,91.75
2023-05-19T19:25:46.109Z,91.69
2023-05-19T19:28:12.784Z,92.07
2023-05-19T19:30:39.334Z,92.64
2023-05-19T19:33:06.846Z,93.38
2023-05-19T19:35:33.697Z,93.33
2023-05-19T19:38:00.323Z,94.10
2023-05-19T19:40:26.945Z,94.30
2023-05-19T19:42:53.720Z,95.36
2023-05-19T19:45:20.974Z,95.72
2023-05-19T19:47:47.556Z,95.88
2023-05-19T19:50:14.364Z,96.32
2023-05-19T19:52:41.027Z,96.37
2023-05-19T19:55:07.875Z,96.84
2023-05-19T19:57:34.468Z,96.94
2023-05-19T20:00:07.897Z,97.28
2023-05-19T20:02:45.517Z,97.17
2023-05-19T20:05:22.400Z,97.62
2023-05-19T20:07:48.949Z,98.09
2023-05-19T20:10:16.015Z,98.75
2023-05-19T20:12:43.487Z,99.62
2023-05-19T20:15:10.257Z,99.98
2023-05-19T20:17:36.988Z,100.00
2023-05-19T20:20:08.027Z,100.00
2023-05-19T20:22:34.647Z,100.00
2023-05-19T20:25:01.389Z,100.00
2023-05-19T20:27:28.001Z,100.00
2023-05-19T20:29:54.710Z,100.00
2023-05-19T20:32:21.259Z,100.00
2023-05-19T20:34:47.893Z,100.00
2023-05-19T20:37:14.489Z,100.00
2023-05-19T20:39:41.268Z,100.00
2023-05-19T20:42:08.480Z,100.00
2023-05-19T20:44:35.040Z,100.00
2023-05-19T20:47:01.668Z,100.00
2023-05-19T20:49:28.264Z,100.00
2023-05-19T20:51:54.969Z,100.00
2023-05-19T20:54:21.911Z,100.00
2023-05-19T20:56:48.608Z,100.00
2023-05-19T20:59:15.345Z,100.00
2023-05-19T21:01:42.270Z,100.00
2023-05-19T21:04:09.148Z,100.00
2023-05-19T21:06:35.902Z,100.00
2023-05-19T21:09:05.138Z,100.00
2023-05-19T21:11:31.988Z,100.00
2023-05-19T21:13:58.611Z,100.00
2023-05-19T21:16:26.130Z,100.00
2023-05-19T21:18:52.856Z,100.00
2023-05-19T21:21:19.464Z,100.00
2023-05-19T21:23:45.996Z,100.00
2023-05-19T21:26:12.536Z,100.00
2023-05-19T21:28:39.193Z,100.00
2023-05-19T21:31:05.986Z,100.00
2023-05-19T21:33:32.648Z,100.00
2023-05-19T21:36:00.450Z,100.00
2023-05-19T21:38:27.477Z,100.00
2023-05-19T21:40:54.522Z,100.00
2023-05-19T21:43:21.907Z,100.00
2023-05-19T21:45:48.614Z,100.00
2023-05-19T21:48:15.231Z,100.00
2023-05-19T21:50:41.831Z,100.00
2023-05-19T21:53:08.454Z,100.00
2023-05-19T21:55:35.005Z,100.00
2023-05-19T21:58:02.659Z,100.00
2023-05-19T22:00:29.546Z,100.00
2023-05-19T22:02:56.391Z,100.00
2023-05-19T22:05:23.079Z,100.00
2023-05-19T22:07:49.630Z,100.00
2023-05-19T22:10:16.534Z,100.00
2023-05-19T22:12:43.122Z,100.00
2023-05-19T22:15:10.089Z,100.00
2023-05-19T22:17:36.781Z,100.00
2023-05-19T22:20:03.465Z,100.00
2023-05-19T22:22:30.022Z,100.00
2023-05-19T22:24:56.710Z,100.00
2023-05-19T22:27:23.304Z,100.00
2023-05-19T22:29:49.978Z,100.00
2023-05-19T22:32:18.391Z,100.00
2023-05-19T22:34:45.214Z,100.00
2023-05-19T22:37:12.077Z,100.00
2023-05-19T22:39:39.163Z,100.00
2023-05-19T22:42:05.938Z,100.00
2023-05-19T22:44:32.604Z,100.00
2023-05-19T22:46:59.134Z,100.00
2023-05-19T22:49:27.433Z,100.00
2023-05-19T22:51:54.053Z,100.00
2023-05-19T22:54:20.683Z,100.00
2023-05-19T22:56:48.962Z,100.00
2023-05-19T22:59:18.042Z,100.00
2023-05-19T23:01:46.539Z,100.00
2023-05-19T23:04:13.588Z,100.00
2023-05-19T23:06:40.451Z,100.00
2023-05-19T23:09:07.233Z,100.00
2023-05-19T23:11:34.741Z,100.00
2023-05-19T23:14:01.762Z,100.00
2023-05-19T23:16:28.381Z,100.00
2023-05-19T23:18:54.978Z,100.00
2023-05-19T23:21:21.610Z,100.00
2023-05-19T23:23:48.143Z,100.00
2023-05-19T23:26:14.744Z,100.00
2023-05-19T23:28:41.753Z,100.00
2023-05-19T23:31:08.731Z,100.00
2023-05-19T23:33:35.498Z,100.00
2023-05-19T23:36:06.304Z,100.00
2023-05-19T23:38:32.921Z,100.00
2023-05-19T23:40:59.492Z,100.00
2023-05-19T23:43:26.130Z,100.00
2023-05-19T23:45:52.789Z,100.00
2023-05-19T23:48:19.360Z,100.00
2023-05-19T23:50:46.096Z,100.00
2023-05-19T23:53:12.641Z,100.00
2023-05-19T23:55:39.231Z,100.00
2023-05-19T23:58:06.124Z,100.00
